sensor_id;sensor_type;location;lat;lon;timestamp;temperature;humidity
12907;DHT22;6521;50.498;8.474;2023-04-15T00:02:16;5.47;77.54
12907;DHT22;6521;50.498;8.474;2023-04-15T00:04:47;5.49;78.21
12907;DHT22;6521;50.498;8.474;2023-04-15T00:07:18;5.50;77.70
12907;DHT22;6521;50.498;8.474;2023-04-15T00:09:50;5.45;78.44
12907;DHT22;6521;50.498;8.474;2023-04-15T00:12:25;5.43;78.48
12907;DHT22;6521;50.498;8.474;2023-04-15T00:14:56;5.38;78.81
12907;DHT22;6521;50.498;8.474;2023-04-15T00:17:29;5.40;78.35
12907;DHT22;6521;50.498;8.474;2023-04-15T00:20:00;5.38;78.44
12907;DHT22;6521;50.498;8.474;2023-04-15T00:22:31;5.34;78.67
12907;DHT22;6521;50.498;8.474;2023-04-15T00:25:02;5.34;78.43
12907;DHT22;6521;50.498;8.474;2023-04-15T00:27:32;5.32;78.47
12907;DHT22;6521;50.498;8.474;2023-04-15T00:30:04;5.28;78.82
12907;DHT22;6521;50.498;8.474;2023-04-15T00:32:34;5.29;78.90
12907;DHT22;6521;50.498;8.474;2023-04-15T00:35:05;5.21;78.83
12907;DHT22;6521;50.498;8.474;2023-04-15T00:37:36;5.15;79.11
12907;DHT22;6521;50.498;8.474;2023-04-15T00:40:11;5.11;79.22
12907;DHT22;6521;50.498;8.474;2023-04-15T00:42:43;5.08;79.45
12907;DHT22;6521;50.498;8.474;2023-04-15T00:45:14;5.04;78.83
12907;DHT22;6521;50.498;8.474;2023-04-15T00:47:45;5.01;78.95
12907;DHT22;6521;50.498;8.474;2023-04-15T00:50:16;4.98;79.08
12907;DHT22;6521;50.498;8.474;2023-04-15T00:52:47;4.95;79.35
12907;DHT22;6521;50.498;8.474;2023-04-15T00:55:19;4.95;79.14
12907;DHT22;6521;50.498;8.474;2023-04-15T00:57:49;4.94;79.01
12907;DHT22;6521;50.498;8.474;2023-04-15T01:00:21;4.92;79.28
12907;DHT22;6521;50.498;8.474;2023-04-15T01:02:52;4.91;79.62
12907;DHT22;6521;50.498;8.474;2023-04-15T01:05:23;4.89;79.61
12907;DHT22;6521;50.498;8.474;2023-04-15T01:07:54;4.89;79.36
12907;DHT22;6521;50.498;8.474;2023-04-15T01:10:25;4.83;79.09
12907;DHT22;6521;50.498;8.474;2023-04-15T01:12:57;4.81;79.11
12907;DHT22;6521;50.498;8.474;2023-04-15T01:15:30;4.77;79.26
12907;DHT22;6521;50.498;8.474;2023-04-15T01:18:01;4.76;79.30
12907;DHT22;6521;50.498;8.474;2023-04-15T01:20:34;4.77;79.15
12907;DHT22;6521;50.498;8.474;2023-04-15T01:23:05;4.77;79.12
12907;DHT22;6521;50.498;8.474;2023-04-15T01:25:37;4.73;79.17
12907;DHT22;6521;50.498;8.474;2023-04-15T01:28:08;4.71;79.46
12907;DHT22;6521;50.498;8.474;2023-04-15T01:30:39;4.68;79.17
12907;DHT22;6521;50.498;8.474;2023-04-15T01:33:10;4.70;79.53
12907;DHT22;6521;50.498;8.474;2023-04-15T01:35:42;4.70;79.49
12907;DHT22;6521;50.498;8.474;2023-04-15T01:38:14;4.73;79.63
12907;DHT22;6521;50.498;8.474;2023-04-15T01:40:45;4.74;79.74
12907;DHT22;6521;50.498;8.474;2023-04-15T01:43:15;4.76;79.60
12907;DHT22;6521;50.498;8.474;2023-04-15T01:45:47;4.76;79.78
12907;DHT22;6521;50.498;8.474;2023-04-15T01:48:17;4.76;79.81
12907;DHT22;6521;50.498;8.474;2023-04-15T01:50:48;4.68;79.88
12907;DHT22;6521;50.498;8.474;2023-04-15T01:53:19;4.56;79.50
12907;DHT22;6521;50.498;8.474;2023-04-15T01:55:51;4.50;79.52
12907;DHT22;6521;50.498;8.474;2023-04-15T01:58:22;4.49;79.98
12907;DHT22;6521;50.498;8.474;2023-04-15T02:00:52;4.45;80.32
12907;DHT22;6521;50.498;8.474;2023-04-15T02:03:27;4.39;80.20
12907;DHT22;6521;50.498;8.474;2023-04-15T02:05:59;4.39;80.31
12907;DHT22;6521;50.498;8.474;2023-04-15T02:08:31;4.36;80.48
12907;DHT22;6521;50.498;8.474;2023-04-15T02:11:02;4.35;80.33
12907;DHT22;6521;50.498;8.474;2023-04-15T02:13:32;4.32;80.45
12907;DHT22;6521;50.498;8.474;2023-04-15T02:16:04;4.33;80.50
12907;DHT22;6521;50.498;8.474;2023-04-15T02:18:45;4.33;80.28
12907;DHT22;6521;50.498;8.474;2023-04-15T02:21:16;4.29;80.17
12907;DHT22;6521;50.498;8.474;2023-04-15T02:23:48;4.22;80.15
12907;DHT22;6521;50.498;8.474;2023-04-15T02:26:19;4.15;80.21
12907;DHT22;6521;50.498;8.474;2023-04-15T02:28:50;4.12;80.44
12907;DHT22;6521;50.498;8.474;2023-04-15T02:31:21;4.13;80.42
12907;DHT22;6521;50.498;8.474;2023-04-15T02:33:52;4.09;80.55
12907;DHT22;6521;50.498;8.474;2023-04-15T02:36:22;4.12;80.75
12907;DHT22;6521;50.498;8.474;2023-04-15T02:38:53;4.15;80.72
12907;DHT22;6521;50.498;8.474;2023-04-15T02:41:25;4.15;80.70
12907;DHT22;6521;50.498;8.474;2023-04-15T02:43:58;4.12;80.37
12907;DHT22;6521;50.498;8.474;2023-04-15T02:46:29;4.05;80.57
12907;DHT22;6521;50.498;8.474;2023-04-15T02:49:00;4.05;80.68
12907;DHT22;6521;50.498;8.474;2023-04-15T02:51:32;4.02;80.61
12907;DHT22;6521;50.498;8.474;2023-04-15T02:54:03;3.98;80.88
12907;DHT22;6521;50.498;8.474;2023-04-15T02:56:34;3.96;80.94
12907;DHT22;6521;50.498;8.474;2023-04-15T02:59:05;3.96;81.12
12907;DHT22;6521;50.498;8.474;2023-04-15T03:01:36;4.03;81.12
12907;DHT22;6521;50.498;8.474;2023-04-15T03:04:06;4.03;81.03
12907;DHT22;6521;50.498;8.474;2023-04-15T03:06:38;4.03;81.26
12907;DHT22;6521;50.498;8.474;2023-04-15T03:09:12;3.98;81.34
12907;DHT22;6521;50.498;8.474;2023-04-15T03:11:42;3.95;81.47
12907;DHT22;6521;50.498;8.474;2023-04-15T03:14:13;3.99;81.56
12907;DHT22;6521;50.498;8.474;2023-04-15T03:16:48;3.95;81.79
12907;DHT22;6521;50.498;8.474;2023-04-15T03:19:21;3.94;81.71
12907;DHT22;6521;50.498;8.474;2023-04-15T03:21:52;3.98;81.80
12907;DHT22;6521;50.498;8.474;2023-04-15T03:24:23;3.96;81.88
12907;DHT22;6521;50.498;8.474;2023-04-15T03:26:55;3.96;81.75
12907;DHT22;6521;50.498;8.474;2023-04-15T03:29:27;3.96;81.77
12907;DHT22;6521;50.498;8.474;2023-04-15T03:31:58;3.94;81.80
12907;DHT22;6521;50.498;8.474;2023-04-15T03:34:29;3.95;81.90
12907;DHT22;6521;50.498;8.474;2023-04-15T03:37:01;3.96;81.97
12907;DHT22;6521;50.498;8.474;2023-04-15T03:39:32;4.01;81.96
12907;DHT22;6521;50.498;8.474;2023-04-15T03:42:02;3.99;81.60
12907;DHT22;6521;50.498;8.474;2023-04-15T03:44:33;3.96;81.50
12907;DHT22;6521;50.498;8.474;2023-04-15T03:47:04;3.92;81.51
12907;DHT22;6521;50.498;8.474;2023-04-15T03:49:35;3.89;81.47
12907;DHT22;6521;50.498;8.474;2023-04-15T03:52:06;3.87;81.57
12907;DHT22;6521;50.498;8.474;2023-04-15T03:54:36;3.81;81.87
12907;DHT22;6521;50.498;8.474;2023-04-15T03:57:07;3.82;82.15
12907;DHT22;6521;50.498;8.474;2023-04-15T03:59:38;3.81;82.34
12907;DHT22;6521;50.498;8.474;2023-04-15T04:02:08;3.82;82.54
12907;DHT22;6521;50.498;8.474;2023-04-15T04:04:39;3.82;82.56
12907;DHT22;6521;50.498;8.474;2023-04-15T04:07:17;3.87;82.62
12907;DHT22;6521;50.498;8.474;2023-04-15T04:09:48;3.88;82.79
12907;DHT22;6521;50.498;8.474;2023-04-15T04:12:18;3.95;82.53
12907;DHT22;6521;50.498;8.474;2023-04-15T04:14:49;3.96;82.47
12907;DHT22;6521;50.498;8.474;2023-04-15T04:17:20;3.91;82.53
12907;DHT22;6521;50.498;8.474;2023-04-15T04:19:51;3.89;82.63
12907;DHT22;6521;50.498;8.474;2023-04-15T04:22:22;3.89;82.62
12907;DHT22;6521;50.498;8.474;2023-04-15T04:24:53;3.89;82.74
12907;DHT22;6521;50.498;8.474;2023-04-15T04:27:24;3.88;82.60
12907;DHT22;6521;50.498;8.474;2023-04-15T04:29:55;3.85;82.63
12907;DHT22;6521;50.498;8.474;2023-04-15T04:32:26;3.81;82.72
12907;DHT22;6521;50.498;8.474;2023-04-15T04:34:57;3.82;82.80
12907;DHT22;6521;50.498;8.474;2023-04-15T04:37:28;3.79;82.95
12907;DHT22;6521;50.498;8.474;2023-04-15T04:39:58;3.78;83.13
12907;DHT22;6521;50.498;8.474;2023-04-15T04:42:29;3.77;83.34
12907;DHT22;6521;50.498;8.474;2023-04-15T04:45:00;3.78;83.36
12907;DHT22;6521;50.498;8.474;2023-04-15T04:47:31;3.82;83.34
12907;DHT22;6521;50.498;8.474;2023-04-15T04:50:02;3.85;83.53
12907;DHT22;6521;50.498;8.474;2023-04-15T04:52:33;3.87;83.55
12907;DHT22;6521;50.498;8.474;2023-04-15T04:55:04;3.85;83.56
12907;DHT22;6521;50.498;8.474;2023-04-15T04:57:35;3.85;83.61
12907;DHT22;6521;50.498;8.474;2023-04-15T05:00:07;3.88;83.70
12907;DHT22;6521;50.498;8.474;2023-04-15T05:02:38;3.94;83.81
12907;DHT22;6521;50.498;8.474;2023-04-15T05:05:11;4.02;83.71
12907;DHT22;6521;50.498;8.474;2023-04-15T05:07:42;4.06;83.45
12907;DHT22;6521;50.498;8.474;2023-04-15T05:10:13;4.12;83.28
12907;DHT22;6521;50.498;8.474;2023-04-15T05:12:44;4.16;83.26
12907;DHT22;6521;50.498;8.474;2023-04-15T05:15:15;4.19;83.31
12907;DHT22;6521;50.498;8.474;2023-04-15T05:17:46;4.28;83.36
12907;DHT22;6521;50.498;8.474;2023-04-15T05:20:17;4.29;83.19
12907;DHT22;6521;50.498;8.474;2023-04-15T05:22:47;4.33;83.09
12907;DHT22;6521;50.498;8.474;2023-04-15T05:25:19;4.32;82.75
12907;DHT22;6521;50.498;8.474;2023-04-15T05:27:49;4.33;82.46
12907;DHT22;6521;50.498;8.474;2023-04-15T05:30:20;4.32;82.56
12907;DHT22;6521;50.498;8.474;2023-04-15T05:32:51;4.32;82.88
12907;DHT22;6521;50.498;8.474;2023-04-15T05:35:22;4.35;83.00
12907;DHT22;6521;50.498;8.474;2023-04-15T05:37:53;4.37;83.11
12907;DHT22;6521;50.498;8.474;2023-04-15T05:40:23;4.43;83.16
12907;DHT22;6521;50.498;8.474;2023-04-15T05:42:54;4.52;83.29
12907;DHT22;6521;50.498;8.474;2023-04-15T05:45:25;4.58;83.42
12907;DHT22;6521;50.498;8.474;2023-04-15T05:47:55;4.66;83.31
12907;DHT22;6521;50.498;8.474;2023-04-15T05:50:26;4.73;83.31
12907;DHT22;6521;50.498;8.474;2023-04-15T05:52:57;4.83;83.34
12907;DHT22;6521;50.498;8.474;2023-04-15T05:55:27;4.87;83.58
12907;DHT22;6521;50.498;8.474;2023-04-15T05:57:58;4.94;83.64
12907;DHT22;6521;50.498;8.474;2023-04-15T06:00:29;4.99;83.16
12907;DHT22;6521;50.498;8.474;2023-04-15T06:03:00;5.01;82.92
12907;DHT22;6521;50.498;8.474;2023-04-15T06:05:31;5.05;83.03
12907;DHT22;6521;50.498;8.474;2023-04-15T06:08:02;5.14;82.77
12907;DHT22;6521;50.498;8.474;2023-04-15T06:10:34;5.16;82.71
12907;DHT22;6521;50.498;8.474;2023-04-15T06:13:06;5.19;82.75
12907;DHT22;6521;50.498;8.474;2023-04-15T06:15:37;5.24;82.41
12907;DHT22;6521;50.498;8.474;2023-04-15T06:18:08;5.26;82.30
12907;DHT22;6521;50.498;8.474;2023-04-15T06:20:39;5.31;82.27
12907;DHT22;6521;50.498;8.474;2023-04-15T06:23:10;5.38;82.20
12907;DHT22;6521;50.498;8.474;2023-04-15T06:25:41;5.39;82.32
12907;DHT22;6521;50.498;8.474;2023-04-15T06:28:12;5.45;82.57
12907;DHT22;6521;50.498;8.474;2023-04-15T06:30:42;5.50;82.91
12907;DHT22;6521;50.498;8.474;2023-04-15T06:33:13;5.59;82.90
12907;DHT22;6521;50.498;8.474;2023-04-15T06:35:44;5.66;82.29
12907;DHT22;6521;50.498;8.474;2023-04-15T06:38:16;5.67;81.90
12907;DHT22;6521;50.498;8.474;2023-04-15T06:40:46;5.71;81.87
12907;DHT22;6521;50.498;8.474;2023-04-15T06:43:17;5.80;81.42
12907;DHT22;6521;50.498;8.474;2023-04-15T06:45:48;5.77;80.91
12907;DHT22;6521;50.498;8.474;2023-04-15T06:48:18;5.86;80.99
12907;DHT22;6521;50.498;8.474;2023-04-15T06:50:49;5.98;80.83
12907;DHT22;6521;50.498;8.474;2023-04-15T06:53:20;6.01;80.65
12907;DHT22;6521;50.498;8.474;2023-04-15T06:55:51;6.10;80.30
12907;DHT22;6521;50.498;8.474;2023-04-15T06:58:22;6.25;79.60
12907;DHT22;6521;50.498;8.474;2023-04-15T07:00:52;6.32;79.22
12907;DHT22;6521;50.498;8.474;2023-04-15T07:03:23;6.39;79.13
12907;DHT22;6521;50.498;8.474;2023-04-15T07:05:54;6.45;78.74
12907;DHT22;6521;50.498;8.474;2023-04-15T07:08:25;6.48;78.66
12907;DHT22;6521;50.498;8.474;2023-04-15T07:10:56;6.50;77.80
12907;DHT22;6521;50.498;8.474;2023-04-15T07:13:30;6.48;77.74
12907;DHT22;6521;50.498;8.474;2023-04-15T07:16:00;6.50;78.58
12907;DHT22;6521;50.498;8.474;2023-04-15T07:18:31;6.61;78.85
12907;DHT22;6521;50.498;8.474;2023-04-15T07:21:02;6.69;78.71
12907;DHT22;6521;50.498;8.474;2023-04-15T07:23:33;6.79;78.75
12907;DHT22;6521;50.498;8.474;2023-04-15T07:26:04;6.89;78.70
12907;DHT22;6521;50.498;8.474;2023-04-15T07:28:35;6.99;78.38
12907;DHT22;6521;50.498;8.474;2023-04-15T07:31:05;7.13;78.08
12907;DHT22;6521;50.498;8.474;2023-04-15T07:33:36;7.21;76.93
12907;DHT22;6521;50.498;8.474;2023-04-15T07:36:08;7.27;76.88
12907;DHT22;6521;50.498;8.474;2023-04-15T07:38:40;7.47;77.62
12907;DHT22;6521;50.498;8.474;2023-04-15T07:41:11;7.66;76.80
12907;DHT22;6521;50.498;8.474;2023-04-15T07:43:42;7.76;75.97
12907;DHT22;6521;50.498;8.474;2023-04-15T07:46:14;7.86;77.15
12907;DHT22;6521;50.498;8.474;2023-04-15T07:48:45;8.02;76.58
12907;DHT22;6521;50.498;8.474;2023-04-15T07:51:16;8.12;75.32
12907;DHT22;6521;50.498;8.474;2023-04-15T07:53:48;8.21;74.05
12907;DHT22;6521;50.498;8.474;2023-04-15T07:56:19;8.21;73.39
12907;DHT22;6521;50.498;8.474;2023-04-15T07:58:51;8.33;74.60
12907;DHT22;6521;50.498;8.474;2023-04-15T08:01:21;8.45;75.30
12907;DHT22;6521;50.498;8.474;2023-04-15T08:03:52;8.65;73.49
12907;DHT22;6521;50.498;8.474;2023-04-15T08:06:24;8.61;71.92
12907;DHT22;6521;50.498;8.474;2023-04-15T08:08:55;8.62;73.45
12907;DHT22;6521;50.498;8.474;2023-04-15T08:11:26;8.76;72.77
12907;DHT22;6521;50.498;8.474;2023-04-15T08:13:57;8.86;72.51
12907;DHT22;6521;50.498;8.474;2023-04-15T08:16:27;8.96;72.98
12907;DHT22;6521;50.498;8.474;2023-04-15T08:18:59;9.00;72.62
12907;DHT22;6521;50.498;8.474;2023-04-15T08:21:29;9.05;71.48
12907;DHT22;6521;50.498;8.474;2023-04-15T08:24:00;9.10;71.57
12907;DHT22;6521;50.498;8.474;2023-04-15T08:26:31;9.19;71.15
12907;DHT22;6521;50.498;8.474;2023-04-15T08:29:02;9.29;70.71
12907;DHT22;6521;50.498;8.474;2023-04-15T08:31:33;9.36;71.49
12907;DHT22;6521;50.498;8.474;2023-04-15T08:34:04;9.43;71.26
12907;DHT22;6521;50.498;8.474;2023-04-15T08:36:34;9.58;71.26
12907;DHT22;6521;50.498;8.474;2023-04-15T08:39:05;9.85;70.08
12907;DHT22;6521;50.498;8.474;2023-04-15T08:41:45;9.89;70.92
12907;DHT22;6521;50.498;8.474;2023-04-15T08:44:17;10.05;70.02
12907;DHT22;6521;50.498;8.474;2023-04-15T08:46:48;10.22;70.40
12907;DHT22;6521;50.498;8.474;2023-04-15T08:49:20;10.39;68.93
12907;DHT22;6521;50.498;8.474;2023-04-15T08:51:52;10.40;67.28
12907;DHT22;6521;50.498;8.474;2023-04-15T08:54:23;10.47;67.45
12907;DHT22;6521;50.498;8.474;2023-04-15T08:56:56;10.55;67.54
12907;DHT22;6521;50.498;8.474;2023-04-15T08:59:29;10.55;68.41
12907;DHT22;6521;50.498;8.474;2023-04-15T09:02:01;10.55;66.53
12907;DHT22;6521;50.498;8.474;2023-04-15T09:04:32;10.57;66.83
12907;DHT22;6521;50.498;8.474;2023-04-15T09:07:03;10.64;66.41
12907;DHT22;6521;50.498;8.474;2023-04-15T09:09:34;10.68;65.27
12907;DHT22;6521;50.498;8.474;2023-04-15T09:12:07;10.71;65.55
12907;DHT22;6521;50.498;8.474;2023-04-15T09:14:44;10.87;62.73
12907;DHT22;6521;50.498;8.474;2023-04-15T09:17:18;10.91;62.77
12907;DHT22;6521;50.498;8.474;2023-04-15T09:20:06;10.90;62.38
12907;DHT22;6521;50.498;8.474;2023-04-15T09:22:42;10.90;62.83
12907;DHT22;6521;50.498;8.474;2023-04-15T09:27:58;10.84;61.68
12907;DHT22;6521;50.498;8.474;2023-04-15T09:30:29;10.74;61.69
12907;DHT22;6521;50.498;8.474;2023-04-15T09:33:02;10.60;63.07
12907;DHT22;6521;50.498;8.474;2023-04-15T09:35:37;10.50;65.00
12907;DHT22;6521;50.498;8.474;2023-04-15T09:38:08;10.50;64.72
12907;DHT22;6521;50.498;8.474;2023-04-15T09:40:40;10.52;64.00
12907;DHT22;6521;50.498;8.474;2023-04-15T09:43:11;10.45;64.51
12907;DHT22;6521;50.498;8.474;2023-04-15T09:45:48;10.39;65.71
12907;DHT22;6521;50.498;8.474;2023-04-15T09:48:20;10.39;66.60
12907;DHT22;6521;50.498;8.474;2023-04-15T09:50:52;10.43;66.15
12907;DHT22;6521;50.498;8.474;2023-04-15T09:53:27;10.36;67.43
12907;DHT22;6521;50.498;8.474;2023-04-15T09:55:59;10.29;65.88
12907;DHT22;6521;50.498;8.474;2023-04-15T09:58:34;10.23;66.00
12907;DHT22;6521;50.498;8.474;2023-04-15T10:01:05;10.19;66.51
12907;DHT22;6521;50.498;8.474;2023-04-15T10:03:38;10.18;66.64
12907;DHT22;6521;50.498;8.474;2023-04-15T10:06:11;10.19;66.44
12907;DHT22;6521;50.498;8.474;2023-04-15T10:08:44;10.20;66.48
12907;DHT22;6521;50.498;8.474;2023-04-15T10:11:17;10.28;65.02
12907;DHT22;6521;50.498;8.474;2023-04-15T10:13:50;10.26;66.11
12907;DHT22;6521;50.498;8.474;2023-04-15T10:16:22;10.30;65.38
12907;DHT22;6521;50.498;8.474;2023-04-15T10:18:54;10.45;65.51
12907;DHT22;6521;50.498;8.474;2023-04-15T10:21:27;10.55;64.24
12907;DHT22;6521;50.498;8.474;2023-04-15T10:23:58;10.61;64.59
12907;DHT22;6521;50.498;8.474;2023-04-15T10:26:31;10.64;65.30
12907;DHT22;6521;50.498;8.474;2023-04-15T10:29:02;10.78;65.98
12907;DHT22;6521;50.498;8.474;2023-04-15T10:31:34;10.90;66.02
12907;DHT22;6521;50.498;8.474;2023-04-15T10:34:05;10.93;65.37
12907;DHT22;6521;50.498;8.474;2023-04-15T10:36:37;11.01;63.52
12907;DHT22;6521;50.498;8.474;2023-04-15T10:44:42;10.93;64.65
12907;DHT22;6521;50.498;8.474;2023-04-15T10:47:15;10.84;66.33
12907;DHT22;6521;50.498;8.474;2023-04-15T10:49:50;10.83;67.05
12907;DHT22;6521;50.498;8.474;2023-04-15T10:52:26;10.68;68.61
12907;DHT22;6521;50.498;8.474;2023-04-15T10:57:41;10.35;69.75
12907;DHT22;6521;50.498;8.474;2023-04-15T11:00:15;10.19;71.65
12907;DHT22;6521;50.498;8.474;2023-04-15T11:02:54;10.12;73.04
12907;DHT22;6521;50.498;8.474;2023-04-15T11:08:09;9.99;73.85
12907;DHT22;6521;50.498;8.474;2023-04-15T11:13:17;9.84;73.54
12907;DHT22;6521;50.498;8.474;2023-04-15T11:15:55;9.81;74.84
12907;DHT22;6521;50.498;8.474;2023-04-15T11:18:28;9.88;74.91
12907;DHT22;6521;50.498;8.474;2023-04-15T11:21:02;9.85;75.59
12907;DHT22;6521;50.498;8.474;2023-04-15T11:23:38;9.95;75.31
12907;DHT22;6521;50.498;8.474;2023-04-15T11:26:09;9.98;75.49
12907;DHT22;6521;50.498;8.474;2023-04-15T11:28:43;9.94;75.13
12907;DHT22;6521;50.498;8.474;2023-04-15T11:31:17;9.82;75.51
12907;DHT22;6521;50.498;8.474;2023-04-15T11:33:58;9.75;77.21
12907;DHT22;6521;50.498;8.474;2023-04-15T11:36:29;9.64;77.38
12907;DHT22;6521;50.498;8.474;2023-04-15T11:39:01;9.57;77.43
12907;DHT22;6521;50.498;8.474;2023-04-15T11:41:32;9.50;77.45
12907;DHT22;6521;50.498;8.474;2023-04-15T11:44:15;9.40;78.44
12907;DHT22;6521;50.498;8.474;2023-04-15T11:46:46;9.24;78.53
12907;DHT22;6521;50.498;8.474;2023-04-15T11:49:30;9.12;79.34
12907;DHT22;6521;50.498;8.474;2023-04-15T11:52:00;9.03;79.53
12907;DHT22;6521;50.498;8.474;2023-04-15T11:54:31;8.95;80.44
12907;DHT22;6521;50.498;8.474;2023-04-15T11:57:02;8.89;80.59
12907;DHT22;6521;50.498;8.474;2023-04-15T11:59:42;8.89;81.31
12907;DHT22;6521;50.498;8.474;2023-04-15T12:02:14;8.86;82.52
12907;DHT22;6521;50.498;8.474;2023-04-15T12:04:45;8.88;82.59
12907;DHT22;6521;50.498;8.474;2023-04-15T12:07:16;8.83;82.65
12907;DHT22;6521;50.498;8.474;2023-04-15T12:09:54;8.81;82.96
12907;DHT22;6521;50.498;8.474;2023-04-15T12:12:28;8.82;83.40
12907;DHT22;6521;50.498;8.474;2023-04-15T12:14:58;8.82;83.55
12907;DHT22;6521;50.498;8.474;2023-04-15T12:17:29;8.88;83.81
12907;DHT22;6521;50.498;8.474;2023-04-15T12:20:01;8.91;83.34
12907;DHT22;6521;50.498;8.474;2023-04-15T12:22:36;9.00;83.07
12907;DHT22;6521;50.498;8.474;2023-04-15T12:25:07;9.08;82.44
12907;DHT22;6521;50.498;8.474;2023-04-15T12:27:38;9.02;82.62
12907;DHT22;6521;50.498;8.474;2023-04-15T12:30:08;9.02;83.03
12907;DHT22;6521;50.498;8.474;2023-04-15T12:32:41;9.09;83.71
12907;DHT22;6521;50.498;8.474;2023-04-15T12:35:12;9.16;83.19
12907;DHT22;6521;50.498;8.474;2023-04-15T12:37:42;9.13;82.11
12907;DHT22;6521;50.498;8.474;2023-04-15T12:40:13;9.12;82.51
12907;DHT22;6521;50.498;8.474;2023-04-15T12:42:44;9.06;82.56
12907;DHT22;6521;50.498;8.474;2023-04-15T12:45:14;9.08;83.00
12907;DHT22;6521;50.498;8.474;2023-04-15T12:47:45;9.05;83.61
12907;DHT22;6521;50.498;8.474;2023-04-15T12:50:16;9.02;83.57
12907;DHT22;6521;50.498;8.474;2023-04-15T12:52:47;9.02;83.90
12907;DHT22;6521;50.498;8.474;2023-04-15T12:55:18;9.03;84.48
12907;DHT22;6521;50.498;8.474;2023-04-15T12:57:49;9.02;84.61
12907;DHT22;6521;50.498;8.474;2023-04-15T13:00:20;9.06;84.86
12907;DHT22;6521;50.498;8.474;2023-04-15T13:02:50;9.09;84.94
12907;DHT22;6521;50.498;8.474;2023-04-15T13:05:21;9.08;84.77
12907;DHT22;6521;50.498;8.474;2023-04-15T13:07:52;9.02;85.37
12907;DHT22;6521;50.498;8.474;2023-04-15T13:10:22;9.02;85.57
12907;DHT22;6521;50.498;8.474;2023-04-15T13:12:53;9.00;85.29
12907;DHT22;6521;50.498;8.474;2023-04-15T13:15:26;8.96;85.12
12907;DHT22;6521;50.498;8.474;2023-04-15T13:17:56;8.89;85.79
12907;DHT22;6521;50.498;8.474;2023-04-15T13:20:27;8.86;85.50
12907;DHT22;6521;50.498;8.474;2023-04-15T13:22:58;8.86;85.11
12907;DHT22;6521;50.498;8.474;2023-04-15T13:25:29;8.79;85.08
12907;DHT22;6521;50.498;8.474;2023-04-15T13:28:00;8.71;85.28
12907;DHT22;6521;50.498;8.474;2023-04-15T13:30:30;8.69;85.73
12907;DHT22;6521;50.498;8.474;2023-04-15T13:33:02;8.75;85.40
12907;DHT22;6521;50.498;8.474;2023-04-15T13:35:32;8.76;84.91
12907;DHT22;6521;50.498;8.474;2023-04-15T13:38:03;8.75;85.30
12907;DHT22;6521;50.498;8.474;2023-04-15T13:40:34;8.68;85.12
12907;DHT22;6521;50.498;8.474;2023-04-15T13:43:04;8.69;85.15
12907;DHT22;6521;50.498;8.474;2023-04-15T13:45:35;8.69;85.35
12907;DHT22;6521;50.498;8.474;2023-04-15T13:48:06;8.71;85.22
12907;DHT22;6521;50.498;8.474;2023-04-15T13:50:37;8.76;85.27
12907;DHT22;6521;50.498;8.474;2023-04-15T13:53:07;8.79;85.72
12907;DHT22;6521;50.498;8.474;2023-04-15T13:55:38;8.91;85.10
12907;DHT22;6521;50.498;8.474;2023-04-15T13:58:11;8.93;84.58
12907;DHT22;6521;50.498;8.474;2023-04-15T14:00:41;8.96;85.01
12907;DHT22;6521;50.498;8.474;2023-04-15T14:03:12;8.86;85.28
12907;DHT22;6521;50.498;8.474;2023-04-15T14:05:43;8.91;84.39
12907;DHT22;6521;50.498;8.474;2023-04-15T14:08:14;8.81;84.47
12907;DHT22;6521;50.498;8.474;2023-04-15T14:10:45;8.71;84.79
12907;DHT22;6521;50.498;8.474;2023-04-15T14:13:17;8.65;85.32
12907;DHT22;6521;50.498;8.474;2023-04-15T14:15:49;8.51;85.68
12907;DHT22;6521;50.498;8.474;2023-04-15T14:18:20;8.48;85.20
12907;DHT22;6521;50.498;8.474;2023-04-15T14:20:50;8.42;85.53
12907;DHT22;6521;50.498;8.474;2023-04-15T14:23:22;8.41;85.47
12907;DHT22;6521;50.498;8.474;2023-04-15T14:25:52;8.30;86.16
12907;DHT22;6521;50.498;8.474;2023-04-15T14:28:23;8.34;86.22
12907;DHT22;6521;50.498;8.474;2023-04-15T14:30:54;8.29;86.13
12907;DHT22;6521;50.498;8.474;2023-04-15T14:33:25;8.30;86.28
12907;DHT22;6521;50.498;8.474;2023-04-15T14:35:56;8.29;86.63
12907;DHT22;6521;50.498;8.474;2023-04-15T14:38:27;8.29;86.76
12907;DHT22;6521;50.498;8.474;2023-04-15T14:40:58;8.29;86.54
12907;DHT22;6521;50.498;8.474;2023-04-15T14:43:29;8.26;86.89
12907;DHT22;6521;50.498;8.474;2023-04-15T14:45:59;8.26;86.78
12907;DHT22;6521;50.498;8.474;2023-04-15T14:48:30;8.27;86.59
12907;DHT22;6521;50.498;8.474;2023-04-15T14:51:01;8.20;86.81
12907;DHT22;6521;50.498;8.474;2023-04-15T14:53:32;8.20;86.88
12907;DHT22;6521;50.498;8.474;2023-04-15T14:56:03;8.23;86.87
12907;DHT22;6521;50.498;8.474;2023-04-15T14:58:34;8.17;87.00
12907;DHT22;6521;50.498;8.474;2023-04-15T15:01:05;8.16;87.37
12907;DHT22;6521;50.498;8.474;2023-04-15T15:03:36;8.14;87.39
12907;DHT22;6521;50.498;8.474;2023-04-15T15:06:06;8.16;87.67
12907;DHT22;6521;50.498;8.474;2023-04-15T15:08:37;8.14;87.69
12907;DHT22;6521;50.498;8.474;2023-04-15T15:11:08;8.13;87.82
12907;DHT22;6521;50.498;8.474;2023-04-15T15:13:38;8.16;87.76
12907;DHT22;6521;50.498;8.474;2023-04-15T15:16:10;8.13;87.79
12907;DHT22;6521;50.498;8.474;2023-04-15T15:18:40;8.14;88.03
12907;DHT22;6521;50.498;8.474;2023-04-15T15:21:11;8.14;88.15
12907;DHT22;6521;50.498;8.474;2023-04-15T15:23:42;8.12;88.23
12907;DHT22;6521;50.498;8.474;2023-04-15T15:26:13;8.16;88.23
12907;DHT22;6521;50.498;8.474;2023-04-15T15:28:43;8.19;88.15
12907;DHT22;6521;50.498;8.474;2023-04-15T15:31:15;8.14;88.39
12907;DHT22;6521;50.498;8.474;2023-04-15T15:33:46;8.14;88.26
12907;DHT22;6521;50.498;8.474;2023-04-15T15:36:17;8.09;88.34
12907;DHT22;6521;50.498;8.474;2023-04-15T15:38:47;8.13;88.41
12907;DHT22;6521;50.498;8.474;2023-04-15T15:41:18;8.12;88.63
12907;DHT22;6521;50.498;8.474;2023-04-15T15:43:49;8.10;88.87
12907;DHT22;6521;50.498;8.474;2023-04-15T15:46:19;8.14;88.88
12907;DHT22;6521;50.498;8.474;2023-04-15T15:48:50;8.19;88.92
12907;DHT22;6521;50.498;8.474;2023-04-15T15:51:21;8.17;89.06
12907;DHT22;6521;50.498;8.474;2023-04-15T15:53:51;8.19;88.89
12907;DHT22;6521;50.498;8.474;2023-04-15T15:56:22;8.21;89.10
12907;DHT22;6521;50.498;8.474;2023-04-15T15:58:53;8.23;89.09
12907;DHT22;6521;50.498;8.474;2023-04-15T16:01:24;8.23;89.12
12907;DHT22;6521;50.498;8.474;2023-04-15T16:03:54;8.23;89.28
12907;DHT22;6521;50.498;8.474;2023-04-15T16:06:25;8.27;89.26
12907;DHT22;6521;50.498;8.474;2023-04-15T16:08:56;8.27;88.86
12907;DHT22;6521;50.498;8.474;2023-04-15T16:11:28;8.24;88.92
12907;DHT22;6521;50.498;8.474;2023-04-15T16:13:58;8.24;88.69
12907;DHT22;6521;50.498;8.474;2023-04-15T16:16:29;8.24;88.87
12907;DHT22;6521;50.498;8.474;2023-04-15T16:19:00;8.27;88.59
12907;DHT22;6521;50.498;8.474;2023-04-15T16:21:31;8.23;88.84
12907;DHT22;6521;50.498;8.474;2023-04-15T16:24:01;8.21;88.89
12907;DHT22;6521;50.498;8.474;2023-04-15T16:26:32;8.21;88.79
12907;DHT22;6521;50.498;8.474;2023-04-15T16:29:03;8.19;88.96
12907;DHT22;6521;50.498;8.474;2023-04-15T16:31:34;8.20;88.76
12907;DHT22;6521;50.498;8.474;2023-04-15T16:34:07;8.21;88.67
12907;DHT22;6521;50.498;8.474;2023-04-15T16:36:37;8.23;88.66
12907;DHT22;6521;50.498;8.474;2023-04-15T16:39:09;8.17;88.63
12907;DHT22;6521;50.498;8.474;2023-04-15T16:41:41;8.21;88.67
12907;DHT22;6521;50.498;8.474;2023-04-15T16:44:12;8.19;88.57